Aqua, PA

2:20 PM EDT on September 22, 2014 (GMT -0400)
Hagerstown Regional-Henson | Change Station
CLOSE
Current Station
Airport
Location: Hagerstown,
Elevation: 705 ft
Nearby Weather Stations

Elev 705 ft 39.71 °N, 77.73 °W | Updated 27 minutes ago

Partly Cloudy
Partly Cloudy
67 °F
Feels Like 67 °F
N
22
Wind Variable Wind from WNW
Gusts 28 mph

Today
High -- | Low -- °F
--% Chance of Precip.
Yesterday
High -- | Low -- °F
Precip. -- in
6:58 AM 7:07 PM
Waning Crescent, 2% visible
Pressure 30.09 in
Visibility 10.0 miles
Clouds Few 4500 ft
Dew Point 44 °F
Humidity 44%
Rainfall 0.00 in
Snow Depth Not available.
UV 7 out of 12
Pollen 4.70 out of 12
Air Quality Not available.
Flu Activity Not available.
METAR KHGR 221753Z 30019G24KT 10SM FEW045 19/07 A3006 RMK AO2 SLP187 T01940067 10194 20144 50007

More Conditions Fewer Conditions

Pressure 30.09 in
Visibility 10.0 miles
Clouds Few 4500 ft
Dew Point 44 °F
Humidity 44%
Rainfall 0.00 in
Snow Depth Not available.
UV 7 out of 12
Pollen 4.70 out of 12
Air Quality Not available.
Flu Activity Not available.
METAR KHGR 221753Z 30019G24KT 10SM FEW045 19/07 A3006 RMK AO2 SLP187 T01940067 10194 20144 50007

More Conditions Fewer Conditions

10-Day Weather Forecast

Almanac

Astronomy

Sep. 22, 2014 Rise Set
Actual Time 6:58 AM EDT 7:07 PM EDT
Civil Twilight 6:31 AM EDT 7:34 PM EDT
Nautical Twilight 5:59 AM EDT 8:06 PM EDT
Astronomical Twilight 5:27 AM EDT 8:38 PM EDT
Moon 5:25 AM EDT 6:14 PM EDT
Length of Visible Light 13h 03m
Length of Day
12h 09m
Tomorrow will be 2m 36s shorter.
Waning Crescent, 2% of the Moon is Illuminated
Today
Waning Crescent
Sep 24
New
Oct 1
First Quarter
Oct 8
Full
Oct 15
Last Quarter

Today's Extremes

State Highs State Lows

Community

WunderPhotos

Upload Photos

1,755,506 photos uploaded!

WunderBlogs® & News

By Dr. Jeff Masters
Director of Meteorology, Weather Underground
By Kari Strenfel
Meteorologist, Weather Underground
By Christopher C. Burt
Weather Historian, Weather Underground
September 22, 2014
September 22, 2014
September 22, 2014

Nearby

Snow Depth

Station Depth Elevation
No new snow has been reported.

Earthquake Activity

City Distance Mag. Time & Date
No recent earthquake activity has been reported nearby.
Minimum magnitude displayed is 2.5.

Coastal Water Temperatures

Place Temperature
No Stations Reporting

Nearby Weather Stations